x

Halibut Bank (46146) Wave Buoy

6:00am - Fri 23rd Jun 2017 All times are PDT. -7 hours from GMT.

  • Sig Wave height 1.3ft
  • Peak Period 3s
  • Wind
    13mph, 18mph gusts
  • Sea Temp 60°f
  • Air Temp 60°f
  • Sea Pressure 1024.5mb
  • Halibut Bank
  • Halibut Bank

More Historic Weather Station data

Upgrade to MSW Pro to gain access to the past 30 days of data for over 8000 Wavebouys and Weather Stations around the globe.

Join Pro

Comparision Forecast

View Surf forecast
   
Fri 06/23 6:00am 1.3ft 3s 13 18 mph 1024.5mb 60f 60f
5:00am 1.3ft 3s 16 18 mph 1024.2mb 60f 60f
4:00am 1.3ft 3s 13 18 mph 1023.6mb 61f 60f
3:00am 0.7ft 2s 11 13 mph 1023.5mb 61f 61f
2:00am 0.7ft 2s 11 13 mph 1023.5mb 61f 61f
1:00am 0.7ft 2s 13 13 mph 1023.4mb 61f 61f
12:00am 1ft 2s 13 16 mph 1023.4mb 61f 62f
Thu 06/22 11:00pm 1ft 2s 16 18 mph 1023.5mb 61f 62f
10:00pm 0.7ft 2s 13 16 mph 1023.4mb 61f 62f
9:00pm 0.7ft 2s 13 13 mph 1023.2mb 61f 62f
8:00pm 1ft 2s 13 13 mph 1023.6mb 60f 62f
7:00pm 0.7ft 2s 11 13 mph 1024mb 61f 62f
6:00pm 0.7ft 3s 11 13 mph 1024.2mb 61f 63f
5:00pm 0.7ft 3s 11 11 mph 1024.7mb 62f 61f
4:00pm 0.7ft 3s 9 11 mph 1025.5mb 62f 60f
3:00pm 1ft 3s 9 11 mph 1026mb 59f 59f
2:00pm 1ft 3s 11 11 mph 1026.7mb 58f 58f
1:00pm 1ft 2s 11 11 mph 1027.2mb 58f 57f
12:00pm 1.3ft 3s 11 13 mph 1027.5mb 58f 56f
11:00am 1.3ft 3s 13 16 mph 1027.8mb 57f 56f
10:00am 1ft 3s 13 16 mph 1027.9mb 57f 56f
9:00am 1ft 3s 11 13 mph 1027.9mb 57f 56f
8:00am 1.3ft 3s 9 11 mph 1027.5mb 56f 55f
7:00am 1.6ft 4s 9 11 mph 1027.1mb 56f 55f
6:00am 1.3ft 3s 7 7 mph 1026.9mb 56f 56f
5:00am 1.6ft 4s 7 7 mph 1026.2mb 56f 55f
4:00am 2ft 4s 9 11 mph 1025.9mb 56f 56f
3:00am 2.5ft 4s 9 11 mph 1025.8mb 56f 56f
2:00am 2ft 4s 13 18 mph 1025.7mb 56f 57f
1:00am 2ft 4s 13 16 mph 1025.5mb 56f 58f
12:00am 1.6ft 3s 18 20 mph 1024.8mb 56f 59f
Wed 06/21 11:00pm 1.6ft 4s 18 20 mph 1024.4mb 57f 60f
10:00pm 1.3ft 3s 18 22 mph 1024.3mb 57f 60f
9:00pm 1ft 3s 13 16 mph 1024.2mb 57f 60f
8:00pm 1.3ft 3s 16 18 mph 1024.2mb 58f 60f
7:00pm 1.3ft 3s 13 16 mph 1024.4mb 59f 61f
6:00pm 2ft 4s 13 16 mph 1024.4mb 58f 61f
5:00pm 2ft 3s 13 16 mph 1024.8mb 59f 60f
4:00pm 1.6ft 4s 18 20 mph 1024.9mb 59f 60f
3:00pm 1.6ft 4s 11 11 mph 1025.5mb 58f 60f
2:00pm 1.3ft 4s 9 11 mph 1025.8mb 59f 59f
1:00pm 1.6ft 3s 7 11 mph 1025.9mb 58f 58f
12:00pm 2ft 3s 13 16 mph 1026.1mb 57f 58f
11:00am 2.5ft 4s 16 18 mph 1026.1mb 57f 57f
10:00am 2.5ft 3s 18 20 mph 1025.9mb 56f 56f
9:00am 2ft 4s 18 20 mph 1025.6mb 58f 57f
8:00am 2.5ft 4s 20 22 mph 1024.7mb 58f 57f
7:00am 3ft 4s 22 25 mph 1024mb 58f 57f
6:00am 3.5ft 4s 25 29 mph 1023.5mb 59f 57f
5:00am 3.5ft 4s 27 31 mph 1022.9mb 59f 57f
4:00am 3ft 4s 27 31 mph 1022.5mb 59f 58f
3:00am 3ft 4s 22 27 mph 1022.5mb 60f 58f
2:00am 2.5ft 4s 20 25 mph 1022.4mb 60f 59f
1:00am 2.5ft 4s 22 25 mph 1021.9mb 60f 60f
12:00am 1.6ft 4s 16 18 mph 1022.2mb 59f 61f
Tue 06/20 11:00pm 1.6ft 3s 7 11 mph 1021.9mb 59f 62f
10:00pm 1.6ft 3s 13 16 mph 1021.5mb 59f 62f
9:00pm 1.6ft 3s 20 22 mph 1020.4mb 60f 63f
8:00pm 1.6ft 3s 20 22 mph 1019.9mb 60f 64f
7:00pm 1.6ft 3s 16 18 mph 1019.6mb 60f 63f
6:00pm 1.6ft 3s 16 18 mph 1019.7mb 60f 62f
5:00pm 1.6ft 3s 18 20 mph 1019.6mb 60f 61f
4:00pm 1.6ft 3s 18 20 mph 1019.5mb 60f 62f
3:00pm 1.6ft 3s 16 18 mph 1019.5mb 60f 61f
2:00pm 1.6ft 3s 16 18 mph 1019.1mb 60f 61f
1:00pm 1.3ft 3s 16 18 mph 1019.3mb 60f 60f
12:00pm 1ft 2s 9 13 mph 1019.1mb 60f 60f
11:00am 0.3ft 3s 11 16 mph 1018.8mb 60f 59f
8:00am 0.3ft 4s 9 13 mph 1017.1mb 59f 59f
7:00am 0.3ft 5s 9 11 mph 1016.7mb 59f 59f
6:00am 0.3ft 2s 9 11 mph 1016.4mb 59f 59f
5:00am 0.3ft 5s 11 11 mph 1016.1mb 59f 59f
4:00am 0.3ft 2s 9 9 mph 1015.6mb 59f 59f
3:00am 0.3ft 2s 4 4 mph 1016.1mb 59f 60f
2:00am 0.3ft 2s 4 4 mph 1015.9mb 59f 59f
1:00am 0.3ft 2s 2 4 mph 1015.3mb 60f 59f
12:00am 0.3ft 3s  -  0 mph 1015.4mb 59f 60f
Mon 06/19 11:00pm 0.3ft 6s 7 9 mph 1015.6mb 59f 60f
10:00pm 0.7ft 3s 7 9 mph 1015.3mb 60f 60f
9:00pm 0.7ft 3s 9 9 mph 1015.2mb 60f 60f
8:00pm 0.7ft 3s 11 13 mph 1015.7mb 60f 60f
7:00pm 0.7ft 3s 13 16 mph 1015.7mb 60f 60f
6:00pm 0.7ft 3s 9 11 mph 1015.7mb 60f 60f
5:00pm 0.7ft 3s 9 11 mph 1016.3mb 59f 60f
4:00pm 0.7ft 3s 7 9 mph 1016.5mb 59f 60f
3:00pm 0.7ft 3s 11 13 mph 1017mb 59f 59f